sensor_id;sensor_type;location;lat;lon;timestamp;P1;durP1;ratioP1;P2;durP2;ratioP2
16737;SDS011;17906;47.684;10.806;2022-08-19T00:00:18;5.53;;;2.90;;
16737;SDS011;17906;47.684;10.806;2022-08-19T00:02:45;4.20;;;2.80;;
16737;SDS011;17906;47.684;10.806;2022-08-19T00:05:12;4.18;;;2.75;;
16737;SDS011;17906;47.684;10.806;2022-08-19T00:07:40;6.43;;;3.00;;
16737;SDS011;17906;47.684;10.806;2022-08-19T00:10:08;3.63;;;2.72;;
16737;SDS011;17906;47.684;10.806;2022-08-19T00:12:36;5.50;;;2.90;;
16737;SDS011;17906;47.684;10.806;2022-08-19T00:15:07;4.28;;;2.80;;
16737;SDS011;17906;47.684;10.806;2022-08-19T00:17:37;4.68;;;2.88;;
16737;SDS011;17906;47.684;10.806;2022-08-19T00:20:05;5.30;;;3.10;;
16737;SDS011;17906;47.684;10.806;2022-08-19T00:22:32;6.18;;;2.67;;
16737;SDS011;17906;47.684;10.806;2022-08-19T00:24:59;4.10;;;2.83;;
16737;SDS011;17906;47.684;10.806;2022-08-19T00:27:26;3.80;;;2.80;;
16737;SDS011;17906;47.684;10.806;2022-08-19T00:29:52;5.32;;;2.90;;
16737;SDS011;17906;47.684;10.806;2022-08-19T00:32:21;5.68;;;3.13;;
16737;SDS011;17906;47.684;10.806;2022-08-19T00:34:48;6.10;;;3.13;;
16737;SDS011;17906;47.684;10.806;2022-08-19T00:37:14;5.88;;;3.50;;
16737;SDS011;17906;47.684;10.806;2022-08-19T00:39:41;5.63;;;3.38;;
16737;SDS011;17906;47.684;10.806;2022-08-19T00:42:08;4.95;;;3.45;;
16737;SDS011;17906;47.684;10.806;2022-08-19T00:44:34;4.80;;;3.53;;
16737;SDS011;17906;47.684;10.806;2022-08-19T00:47:01;6.32;;;3.83;;
16737;SDS011;17906;47.684;10.806;2022-08-19T00:49:31;4.63;;;3.50;;
16737;SDS011;17906;47.684;10.806;2022-08-19T00:52:02;5.50;;;3.45;;
16737;SDS011;17906;47.684;10.806;2022-08-19T00:54:33;4.18;;;3.20;;
16737;SDS011;17906;47.684;10.806;2022-08-19T00:57:01;5.40;;;3.33;;
16737;SDS011;17906;47.684;10.806;2022-08-19T00:59:31;4.68;;;3.22;;
16737;SDS011;17906;47.684;10.806;2022-08-19T01:02:00;4.90;;;2.67;;
16737;SDS011;17906;47.684;10.806;2022-08-19T01:04:27;3.88;;;3.15;;
16737;SDS011;17906;47.684;10.806;2022-08-19T01:06:55;5.97;;;3.30;;
16737;SDS011;17906;47.684;10.806;2022-08-19T01:09:24;4.30;;;3.30;;
16737;SDS011;17906;47.684;10.806;2022-08-19T01:11:50;5.50;;;3.80;;
16737;SDS011;17906;47.684;10.806;2022-08-19T01:14:18;4.95;;;3.50;;
16737;SDS011;17906;47.684;10.806;2022-08-19T01:16:45;10.02;;;3.70;;
16737;SDS011;17906;47.684;10.806;2022-08-19T01:19:21;8.32;;;3.50;;
16737;SDS011;17906;47.684;10.806;2022-08-19T01:21:58;10.68;;;3.40;;
16737;SDS011;17906;47.684;10.806;2022-08-19T01:24:33;4.95;;;3.65;;
16737;SDS011;17906;47.684;10.806;2022-08-19T01:27:00;4.30;;;3.25;;
16737;SDS011;17906;47.684;10.806;2022-08-19T01:29:30;7.40;;;3.10;;
16737;SDS011;17906;47.684;10.806;2022-08-19T01:31:57;6.45;;;3.53;;
16737;SDS011;17906;47.684;10.806;2022-08-19T01:34:25;4.35;;;3.40;;
16737;SDS011;17906;47.684;10.806;2022-08-19T01:36:52;5.45;;;3.47;;
16737;SDS011;17906;47.684;10.806;2022-08-19T01:39:20;5.20;;;3.60;;
16737;SDS011;17906;47.684;10.806;2022-08-19T01:41:50;3.95;;;3.00;;
16737;SDS011;17906;47.684;10.806;2022-08-19T01:44:20;4.35;;;3.20;;
16737;SDS011;17906;47.684;10.806;2022-08-19T01:46:49;4.10;;;3.35;;
16737;SDS011;17906;47.684;10.806;2022-08-19T01:49:19;5.50;;;2.85;;
16737;SDS011;17906;47.684;10.806;2022-08-19T01:51:48;4.15;;;2.83;;
16737;SDS011;17906;47.684;10.806;2022-08-19T01:54:16;6.68;;;4.00;;
16737;SDS011;17906;47.684;10.806;2022-08-19T01:56:43;6.82;;;3.22;;
16737;SDS011;17906;47.684;10.806;2022-08-19T01:59:12;5.82;;;3.65;;
16737;SDS011;17906;47.684;10.806;2022-08-19T02:01:42;4.27;;;2.90;;
16737;SDS011;17906;47.684;10.806;2022-08-19T02:04:08;3.60;;;3.03;;
16737;SDS011;17906;47.684;10.806;2022-08-19T02:06:36;7.32;;;3.47;;
16737;SDS011;17906;47.684;10.806;2022-08-19T02:09:04;6.28;;;3.85;;
16737;SDS011;17906;47.684;10.806;2022-08-19T02:11:33;5.63;;;3.65;;
16737;SDS011;17906;47.684;10.806;2022-08-19T02:14:03;5.88;;;2.80;;
16737;SDS011;17906;47.684;10.806;2022-08-19T02:16:33;5.40;;;2.83;;
16737;SDS011;17906;47.684;10.806;2022-08-19T02:19:01;3.13;;;2.63;;
16737;SDS011;17906;47.684;10.806;2022-08-19T02:21:28;4.20;;;3.10;;
16737;SDS011;17906;47.684;10.806;2022-08-19T02:24:07;5.60;;;2.90;;
16737;SDS011;17906;47.684;10.806;2022-08-19T02:26:33;4.75;;;3.00;;
16737;SDS011;17906;47.684;10.806;2022-08-19T02:29:00;4.43;;;2.80;;
16737;SDS011;17906;47.684;10.806;2022-08-19T02:31:27;4.17;;;2.80;;
16737;SDS011;17906;47.684;10.806;2022-08-19T02:33:55;4.32;;;2.75;;
16737;SDS011;17906;47.684;10.806;2022-08-19T02:36:23;4.50;;;2.70;;
16737;SDS011;17906;47.684;10.806;2022-08-19T02:38:51;6.63;;;2.83;;
16737;SDS011;17906;47.684;10.806;2022-08-19T02:41:17;4.50;;;3.07;;
16737;SDS011;17906;47.684;10.806;2022-08-19T02:43:47;4.10;;;3.20;;
16737;SDS011;17906;47.684;10.806;2022-08-19T02:46:15;7.70;;;2.90;;
16737;SDS011;17906;47.684;10.806;2022-08-19T02:48:46;3.37;;;2.67;;
16737;SDS011;17906;47.684;10.806;2022-08-19T02:51:17;4.55;;;2.90;;
16737;SDS011;17906;47.684;10.806;2022-08-19T02:53:44;4.37;;;3.37;;
16737;SDS011;17906;47.684;10.806;2022-08-19T02:56:11;5.07;;;3.30;;
16737;SDS011;17906;47.684;10.806;2022-08-19T02:58:38;4.90;;;3.40;;
16737;SDS011;17906;47.684;10.806;2022-08-19T03:01:06;9.73;;;4.83;;
16737;SDS011;17906;47.684;10.806;2022-08-19T03:03:33;5.20;;;4.07;;
16737;SDS011;17906;47.684;10.806;2022-08-19T03:06:06;5.87;;;3.80;;
16737;SDS011;17906;47.684;10.806;2022-08-19T03:08:36;4.83;;;3.87;;
16737;SDS011;17906;47.684;10.806;2022-08-19T03:11:04;7.05;;;4.10;;
16737;SDS011;17906;47.684;10.806;2022-08-19T03:13:31;8.33;;;4.83;;
16737;SDS011;17906;47.684;10.806;2022-08-19T03:15:58;6.80;;;3.72;;
16737;SDS011;17906;47.684;10.806;2022-08-19T03:18:24;4.18;;;3.47;;
16737;SDS011;17906;47.684;10.806;2022-08-19T03:20:51;5.68;;;4.45;;
16737;SDS011;17906;47.684;10.806;2022-08-19T03:23:19;7.03;;;4.20;;
16737;SDS011;17906;47.684;10.806;2022-08-19T03:25:48;6.33;;;3.93;;
16737;SDS011;17906;47.684;10.806;2022-08-19T03:28:16;6.22;;;4.07;;
16737;SDS011;17906;47.684;10.806;2022-08-19T03:30:54;6.53;;;4.13;;
16737;SDS011;17906;47.684;10.806;2022-08-19T03:33:23;9.77;;;4.17;;
16737;SDS011;17906;47.684;10.806;2022-08-19T03:36:01;5.60;;;3.63;;
16737;SDS011;17906;47.684;10.806;2022-08-19T03:38:33;6.50;;;3.83;;
16737;SDS011;17906;47.684;10.806;2022-08-19T03:41:07;5.93;;;3.50;;
16737;SDS011;17906;47.684;10.806;2022-08-19T03:43:36;6.73;;;4.03;;
16737;SDS011;17906;47.684;10.806;2022-08-19T03:46:04;4.70;;;3.60;;
16737;SDS011;17906;47.684;10.806;2022-08-19T03:48:34;4.93;;;3.83;;
16737;SDS011;17906;47.684;10.806;2022-08-19T03:51:02;5.87;;;3.00;;
16737;SDS011;17906;47.684;10.806;2022-08-19T03:53:30;4.27;;;2.60;;
16737;SDS011;17906;47.684;10.806;2022-08-19T03:55:58;11.33;;;3.10;;
16737;SDS011;17906;47.684;10.806;2022-08-19T03:58:26;4.70;;;3.30;;
16737;SDS011;17906;47.684;10.806;2022-08-19T04:00:54;4.53;;;2.97;;
16737;SDS011;17906;47.684;10.806;2022-08-19T04:03:21;4.10;;;3.20;;
16737;SDS011;17906;47.684;10.806;2022-08-19T04:05:48;4.73;;;3.70;;
16737;SDS011;17906;47.684;10.806;2022-08-19T04:08:14;3.07;;;2.33;;
16737;SDS011;17906;47.684;10.806;2022-08-19T04:10:45;3.57;;;2.50;;
16737;SDS011;17906;47.684;10.806;2022-08-19T04:13:12;5.20;;;3.00;;
16737;SDS011;17906;47.684;10.806;2022-08-19T04:15:40;5.10;;;3.97;;
16737;SDS011;17906;47.684;10.806;2022-08-19T04:18:08;7.03;;;3.50;;
16737;SDS011;17906;47.684;10.806;2022-08-19T04:20:38;4.17;;;3.27;;
16737;SDS011;17906;47.684;10.806;2022-08-19T04:23:07;4.37;;;3.37;;
16737;SDS011;17906;47.684;10.806;2022-08-19T04:25:37;4.23;;;3.37;;
16737;SDS011;17906;47.684;10.806;2022-08-19T04:28:05;6.43;;;3.40;;
16737;SDS011;17906;47.684;10.806;2022-08-19T04:30:37;5.70;;;3.23;;
16737;SDS011;17906;47.684;10.806;2022-08-19T04:33:06;4.03;;;3.33;;
16737;SDS011;17906;47.684;10.806;2022-08-19T04:35:34;5.23;;;3.77;;
16737;SDS011;17906;47.684;10.806;2022-08-19T04:38:02;5.50;;;4.20;;
16737;SDS011;17906;47.684;10.806;2022-08-19T04:40:29;6.20;;;4.43;;
16737;SDS011;17906;47.684;10.806;2022-08-19T04:43:13;7.60;;;4.40;;
16737;SDS011;17906;47.684;10.806;2022-08-19T04:45:40;6.17;;;4.07;;
16737;SDS011;17906;47.684;10.806;2022-08-19T04:48:09;6.40;;;4.30;;
16737;SDS011;17906;47.684;10.806;2022-08-19T04:50:39;5.17;;;4.10;;
16737;SDS011;17906;47.684;10.806;2022-08-19T04:53:07;5.57;;;4.20;;
16737;SDS011;17906;47.684;10.806;2022-08-19T04:55:37;5.67;;;4.57;;
16737;SDS011;17906;47.684;10.806;2022-08-19T04:58:05;5.27;;;3.53;;
16737;SDS011;17906;47.684;10.806;2022-08-19T05:00:31;6.77;;;4.43;;
16737;SDS011;17906;47.684;10.806;2022-08-19T05:02:58;6.93;;;4.00;;
16737;SDS011;17906;47.684;10.806;2022-08-19T05:05:27;8.57;;;4.10;;
16737;SDS011;17906;47.684;10.806;2022-08-19T05:07:53;5.37;;;3.83;;
16737;SDS011;17906;47.684;10.806;2022-08-19T05:10:21;5.47;;;4.07;;
16737;SDS011;17906;47.684;10.806;2022-08-19T05:12:47;5.20;;;4.23;;
16737;SDS011;17906;47.684;10.806;2022-08-19T05:15:14;7.00;;;4.83;;
16737;SDS011;17906;47.684;10.806;2022-08-19T05:17:41;7.90;;;4.57;;
16737;SDS011;17906;47.684;10.806;2022-08-19T05:20:29;7.38;;;4.78;;
16737;SDS011;17906;47.684;10.806;2022-08-19T05:23:13;7.60;;;4.50;;
16737;SDS011;17906;47.684;10.806;2022-08-19T05:25:40;6.87;;;4.20;;
16737;SDS011;17906;47.684;10.806;2022-08-19T05:28:07;6.33;;;4.00;;
16737;SDS011;17906;47.684;10.806;2022-08-19T05:30:34;6.23;;;4.13;;
16737;SDS011;17906;47.684;10.806;2022-08-19T05:33:01;5.23;;;4.10;;
16737;SDS011;17906;47.684;10.806;2022-08-19T05:35:27;7.83;;;4.30;;
16737;SDS011;17906;47.684;10.806;2022-08-19T05:37:57;5.60;;;4.00;;
16737;SDS011;17906;47.684;10.806;2022-08-19T05:40:23;7.27;;;5.03;;
16737;SDS011;17906;47.684;10.806;2022-08-19T05:42:50;6.07;;;4.53;;
16737;SDS011;17906;47.684;10.806;2022-08-19T05:45:18;5.90;;;4.33;;
16737;SDS011;17906;47.684;10.806;2022-08-19T05:47:45;5.60;;;4.27;;
16737;SDS011;17906;47.684;10.806;2022-08-19T05:50:11;7.82;;;4.78;;
16737;SDS011;17906;47.684;10.806;2022-08-19T05:52:38;6.72;;;4.55;;
16737;SDS011;17906;47.684;10.806;2022-08-19T05:55:07;6.30;;;4.60;;
16737;SDS011;17906;47.684;10.806;2022-08-19T05:57:34;5.70;;;4.55;;
16737;SDS011;17906;47.684;10.806;2022-08-19T06:00:01;6.57;;;4.90;;
16737;SDS011;17906;47.684;10.806;2022-08-19T06:02:33;6.00;;;4.67;;
16737;SDS011;17906;47.684;10.806;2022-08-19T06:05:00;8.73;;;5.27;;
16737;SDS011;17906;47.684;10.806;2022-08-19T06:07:27;7.70;;;5.00;;
16737;SDS011;17906;47.684;10.806;2022-08-19T06:09:54;6.50;;;4.83;;
16737;SDS011;17906;47.684;10.806;2022-08-19T06:12:23;5.63;;;4.60;;
16737;SDS011;17906;47.684;10.806;2022-08-19T06:14:54;9.17;;;5.00;;
16737;SDS011;17906;47.684;10.806;2022-08-19T06:17:20;6.00;;;4.55;;
16737;SDS011;17906;47.684;10.806;2022-08-19T06:19:47;9.43;;;4.78;;
16737;SDS011;17906;47.684;10.806;2022-08-19T06:22:15;7.07;;;5.37;;
16737;SDS011;17906;47.684;10.806;2022-08-19T06:24:41;9.35;;;5.38;;
16737;SDS011;17906;47.684;10.806;2022-08-19T06:27:09;7.80;;;5.13;;
16737;SDS011;17906;47.684;10.806;2022-08-19T06:29:37;8.55;;;5.15;;
16737;SDS011;17906;47.684;10.806;2022-08-19T06:32:04;9.63;;;4.95;;
16737;SDS011;17906;47.684;10.806;2022-08-19T06:34:32;10.07;;;5.20;;
16737;SDS011;17906;47.684;10.806;2022-08-19T06:37:00;5.45;;;4.60;;
16737;SDS011;17906;47.684;10.806;2022-08-19T06:39:28;7.20;;;5.18;;
16737;SDS011;17906;47.684;10.806;2022-08-19T06:41:58;5.57;;;4.30;;
16737;SDS011;17906;47.684;10.806;2022-08-19T06:44:27;7.78;;;4.55;;
16737;SDS011;17906;47.684;10.806;2022-08-19T06:47:03;6.72;;;4.20;;
16737;SDS011;17906;47.684;10.806;2022-08-19T06:49:32;6.93;;;4.85;;
16737;SDS011;17906;47.684;10.806;2022-08-19T06:51:59;5.72;;;4.35;;
16737;SDS011;17906;47.684;10.806;2022-08-19T06:54:27;6.93;;;4.57;;
16737;SDS011;17906;47.684;10.806;2022-08-19T06:56:54;6.50;;;4.72;;
16737;SDS011;17906;47.684;10.806;2022-08-19T06:59:22;5.95;;;4.50;;
16737;SDS011;17906;47.684;10.806;2022-08-19T07:01:52;8.80;;;4.20;;
16737;SDS011;17906;47.684;10.806;2022-08-19T07:04:23;6.68;;;4.55;;
16737;SDS011;17906;47.684;10.806;2022-08-19T07:06:56;8.48;;;5.90;;
16737;SDS011;17906;47.684;10.806;2022-08-19T07:09:25;7.10;;;5.30;;
16737;SDS011;17906;47.684;10.806;2022-08-19T07:11:52;8.00;;;6.22;;
16737;SDS011;17906;47.684;10.806;2022-08-19T07:14:20;7.85;;;5.82;;
16737;SDS011;17906;47.684;10.806;2022-08-19T07:16:50;7.45;;;5.80;;
16737;SDS011;17906;47.684;10.806;2022-08-19T07:19:18;8.23;;;6.13;;
16737;SDS011;17906;47.684;10.806;2022-08-19T07:21:48;8.13;;;6.30;;
16737;SDS011;17906;47.684;10.806;2022-08-19T07:24:16;7.70;;;5.70;;
16737;SDS011;17906;47.684;10.806;2022-08-19T07:26:43;7.93;;;5.50;;
16737;SDS011;17906;47.684;10.806;2022-08-19T07:29:10;6.68;;;5.32;;
16737;SDS011;17906;47.684;10.806;2022-08-19T07:31:37;8.98;;;6.43;;
16737;SDS011;17906;47.684;10.806;2022-08-19T07:34:05;9.25;;;6.05;;
16737;SDS011;17906;47.684;10.806;2022-08-19T07:36:35;9.07;;;6.30;;
16737;SDS011;17906;47.684;10.806;2022-08-19T07:39:11;8.05;;;6.38;;
16737;SDS011;17906;47.684;10.806;2022-08-19T07:41:40;9.43;;;6.15;;
16737;SDS011;17906;47.684;10.806;2022-08-19T07:44:07;7.95;;;6.07;;
16737;SDS011;17906;47.684;10.806;2022-08-19T07:46:35;10.48;;;5.95;;
16737;SDS011;17906;47.684;10.806;2022-08-19T07:49:05;9.13;;;5.97;;
16737;SDS011;17906;47.684;10.806;2022-08-19T07:51:32;7.82;;;6.18;;
16737;SDS011;17906;47.684;10.806;2022-08-19T07:54:00;7.53;;;6.03;;
16737;SDS011;17906;47.684;10.806;2022-08-19T07:56:28;7.70;;;5.65;;
16737;SDS011;17906;47.684;10.806;2022-08-19T07:58:55;7.15;;;4.95;;
16737;SDS011;17906;47.684;10.806;2022-08-19T08:01:23;7.80;;;5.00;;
16737;SDS011;17906;47.684;10.806;2022-08-19T08:03:51;6.75;;;4.50;;
16737;SDS011;17906;47.684;10.806;2022-08-19T08:06:36;4.97;;;4.05;;
16737;SDS011;17906;47.684;10.806;2022-08-19T08:09:21;6.00;;;4.30;;
16737;SDS011;17906;47.684;10.806;2022-08-19T08:11:53;5.30;;;4.10;;
16737;SDS011;17906;47.684;10.806;2022-08-19T08:14:23;5.55;;;4.53;;
16737;SDS011;17906;47.684;10.806;2022-08-19T08:16:52;5.63;;;4.38;;
16737;SDS011;17906;47.684;10.806;2022-08-19T08:19:19;5.30;;;4.30;;
16737;SDS011;17906;47.684;10.806;2022-08-19T08:21:48;7.72;;;4.28;;
16737;SDS011;17906;47.684;10.806;2022-08-19T08:24:16;6.15;;;4.50;;
16737;SDS011;17906;47.684;10.806;2022-08-19T08:26:43;6.60;;;4.45;;
16737;SDS011;17906;47.684;10.806;2022-08-19T08:29:11;5.82;;;4.68;;
16737;SDS011;17906;47.684;10.806;2022-08-19T08:31:38;5.75;;;4.30;;
16737;SDS011;17906;47.684;10.806;2022-08-19T08:34:06;7.78;;;5.47;;
16737;SDS011;17906;47.684;10.806;2022-08-19T08:36:35;5.57;;;4.65;;
16737;SDS011;17906;47.684;10.806;2022-08-19T08:39:05;6.38;;;4.88;;
16737;SDS011;17906;47.684;10.806;2022-08-19T08:41:34;7.10;;;4.78;;
16737;SDS011;17906;47.684;10.806;2022-08-19T08:44:06;6.20;;;4.45;;
16737;SDS011;17906;47.684;10.806;2022-08-19T08:46:43;5.97;;;4.47;;
16737;SDS011;17906;47.684;10.806;2022-08-19T08:49:17;7.30;;;4.35;;
16737;SDS011;17906;47.684;10.806;2022-08-19T08:51:51;5.30;;;4.22;;
16737;SDS011;17906;47.684;10.806;2022-08-19T08:54:24;7.38;;;4.80;;
16737;SDS011;17906;47.684;10.806;2022-08-19T08:56:55;9.90;;;4.38;;
16737;SDS011;17906;47.684;10.806;2022-08-19T08:59:26;5.40;;;3.83;;
16737;SDS011;17906;47.684;10.806;2022-08-19T09:01:57;5.50;;;4.10;;
16737;SDS011;17906;47.684;10.806;2022-08-19T09:04:24;6.30;;;4.60;;
16737;SDS011;17906;47.684;10.806;2022-08-19T09:06:51;8.05;;;5.10;;
16737;SDS011;17906;47.684;10.806;2022-08-19T09:09:30;7.53;;;5.20;;
16737;SDS011;17906;47.684;10.806;2022-08-19T09:12:03;5.35;;;4.50;;
16737;SDS011;17906;47.684;10.806;2022-08-19T09:14:39;5.07;;;4.05;;
16737;SDS011;17906;47.684;10.806;2022-08-19T09:17:13;6.03;;;4.50;;
16737;SDS011;17906;47.684;10.806;2022-08-19T09:19:47;7.40;;;4.85;;
16737;SDS011;17906;47.684;10.806;2022-08-19T09:22:17;8.00;;;4.60;;
16737;SDS011;17906;47.684;10.806;2022-08-19T09:24:45;5.55;;;4.45;;
16737;SDS011;17906;47.684;10.806;2022-08-19T09:27:12;6.13;;;4.47;;
16737;SDS011;17906;47.684;10.806;2022-08-19T09:29:40;7.00;;;4.80;;
16737;SDS011;17906;47.684;10.806;2022-08-19T09:32:07;7.45;;;5.00;;
16737;SDS011;17906;47.684;10.806;2022-08-19T09:34:34;6.95;;;5.00;;
16737;SDS011;17906;47.684;10.806;2022-08-19T09:37:00;9.48;;;6.10;;
16737;SDS011;17906;47.684;10.806;2022-08-19T09:39:28;7.93;;;5.50;;
16737;SDS011;17906;47.684;10.806;2022-08-19T09:41:55;8.57;;;5.32;;
16737;SDS011;17906;47.684;10.806;2022-08-19T09:44:22;18.15;;;5.30;;
16737;SDS011;17906;47.684;10.806;2022-08-19T09:46:50;9.65;;;5.55;;
16737;SDS011;17906;47.684;10.806;2022-08-19T09:49:17;8.82;;;5.28;;
16737;SDS011;17906;47.684;10.806;2022-08-19T09:51:48;7.50;;;5.70;;
16737;SDS011;17906;47.684;10.806;2022-08-19T09:54:16;6.07;;;4.88;;
16737;SDS011;17906;47.684;10.806;2022-08-19T09:56:43;8.82;;;5.43;;
16737;SDS011;17906;47.684;10.806;2022-08-19T09:59:10;7.63;;;5.60;;
16737;SDS011;17906;47.684;10.806;2022-08-19T10:01:37;7.65;;;5.47;;
16737;SDS011;17906;47.684;10.806;2022-08-19T10:04:05;7.40;;;5.97;;
16737;SDS011;17906;47.684;10.806;2022-08-19T10:06:34;8.07;;;5.97;;
16737;SDS011;17906;47.684;10.806;2022-08-19T10:09:02;7.57;;;5.50;;
16737;SDS011;17906;47.684;10.806;2022-08-19T10:11:31;6.55;;;5.40;;
16737;SDS011;17906;47.684;10.806;2022-08-19T10:13:58;7.93;;;5.20;;
16737;SDS011;17906;47.684;10.806;2022-08-19T10:16:25;6.85;;;4.75;;
16737;SDS011;17906;47.684;10.806;2022-08-19T10:18:52;7.05;;;4.50;;
16737;SDS011;17906;47.684;10.806;2022-08-19T10:21:22;7.60;;;5.10;;
16737;SDS011;17906;47.684;10.806;2022-08-19T10:23:52;5.97;;;4.47;;
16737;SDS011;17906;47.684;10.806;2022-08-19T10:26:22;6.78;;;5.10;;
16737;SDS011;17906;47.684;10.806;2022-08-19T10:28:50;7.20;;;4.68;;
16737;SDS011;17906;47.684;10.806;2022-08-19T10:31:18;9.85;;;5.97;;
16737;SDS011;17906;47.684;10.806;2022-08-19T10:33:47;5.82;;;4.63;;
16737;SDS011;17906;47.684;10.806;2022-08-19T10:36:15;7.75;;;4.90;;
16737;SDS011;17906;47.684;10.806;2022-08-19T10:38:45;7.13;;;4.85;;
16737;SDS011;17906;47.684;10.806;2022-08-19T10:41:15;6.95;;;4.57;;
16737;SDS011;17906;47.684;10.806;2022-08-19T10:43:45;6.25;;;4.80;;
16737;SDS011;17906;47.684;10.806;2022-08-19T10:46:13;7.07;;;4.90;;
16737;SDS011;17906;47.684;10.806;2022-08-19T10:48:41;7.70;;;5.50;;
16737;SDS011;17906;47.684;10.806;2022-08-19T10:51:09;8.10;;;6.00;;
16737;SDS011;17906;47.684;10.806;2022-08-19T10:53:55;7.47;;;5.75;;
16737;SDS011;17906;47.684;10.806;2022-08-19T10:56:23;7.03;;;5.43;;
16737;SDS011;17906;47.684;10.806;2022-08-19T10:59:07;6.30;;;5.25;;
16737;SDS011;17906;47.684;10.806;2022-08-19T11:01:34;7.40;;;4.63;;
16737;SDS011;17906;47.684;10.806;2022-08-19T11:04:01;6.32;;;4.30;;
16737;SDS011;17906;47.684;10.806;2022-08-19T11:06:30;5.47;;;4.20;;
16737;SDS011;17906;47.684;10.806;2022-08-19T11:08:58;5.28;;;4.20;;
16737;SDS011;17906;47.684;10.806;2022-08-19T11:11:26;10.20;;;5.05;;
16737;SDS011;17906;47.684;10.806;2022-08-19T11:13:53;6.43;;;4.63;;
16737;SDS011;17906;47.684;10.806;2022-08-19T11:16:21;5.95;;;4.30;;
16737;SDS011;17906;47.684;10.806;2022-08-19T11:18:51;6.28;;;5.00;;
16737;SDS011;17906;47.684;10.806;2022-08-19T11:21:21;7.28;;;5.55;;
16737;SDS011;17906;47.684;10.806;2022-08-19T11:23:51;6.18;;;4.55;;
16737;SDS011;17906;47.684;10.806;2022-08-19T11:26:20;6.05;;;4.28;;
16737;SDS011;17906;47.684;10.806;2022-08-19T11:28:49;5.90;;;4.32;;
16737;SDS011;17906;47.684;10.806;2022-08-19T11:31:19;5.85;;;4.50;;
16737;SDS011;17906;47.684;10.806;2022-08-19T11:33:48;5.28;;;3.78;;
16737;SDS011;17906;47.684;10.806;2022-08-19T11:36:17;4.30;;;3.45;;
16737;SDS011;17906;47.684;10.806;2022-08-19T11:38:45;5.55;;;4.10;;
16737;SDS011;17906;47.684;10.806;2022-08-19T11:41:15;4.35;;;3.20;;
16737;SDS011;17906;47.684;10.806;2022-08-19T11:43:45;3.60;;;3.10;;
16737;SDS011;17906;47.684;10.806;2022-08-19T11:46:13;4.90;;;2.90;;
16737;SDS011;17906;47.684;10.806;2022-08-19T11:48:41;3.42;;;2.53;;
16737;SDS011;17906;47.684;10.806;2022-08-19T11:51:09;5.22;;;3.55;;
16737;SDS011;17906;47.684;10.806;2022-08-19T11:53:38;2.78;;;2.10;;
16737;SDS011;17906;47.684;10.806;2022-08-19T11:56:05;4.35;;;2.42;;
16737;SDS011;17906;47.684;10.806;2022-08-19T11:58:33;3.53;;;2.85;;
16737;SDS011;17906;47.684;10.806;2022-08-19T12:01:04;3.30;;;1.70;;
16737;SDS011;17906;47.684;10.806;2022-08-19T12:03:32;2.47;;;1.60;;
16737;SDS011;17906;47.684;10.806;2022-08-19T12:05:58;2.17;;;1.70;;
16737;SDS011;17906;47.684;10.806;2022-08-19T12:08:30;2.15;;;1.30;;
16737;SDS011;17906;47.684;10.806;2022-08-19T12:10:57;2.65;;;1.00;;
16737;SDS011;17906;47.684;10.806;2022-08-19T12:13:26;2.03;;;1.30;;
16737;SDS011;17906;47.684;10.806;2022-08-19T12:15:53;1.20;;;0.88;;
16737;SDS011;17906;47.684;10.806;2022-08-19T12:18:21;1.35;;;0.93;;
16737;SDS011;17906;47.684;10.806;2022-08-19T12:20:50;1.10;;;0.90;;
16737;SDS011;17906;47.684;10.806;2022-08-19T12:23:19;1.02;;;0.90;;
16737;SDS011;17906;47.684;10.806;2022-08-19T12:25:47;1.00;;;0.88;;
16737;SDS011;17906;47.684;10.806;2022-08-19T12:28:16;0.93;;;0.80;;
16737;SDS011;17906;47.684;10.806;2022-08-19T12:30:43;1.63;;;1.00;;
16737;SDS011;17906;47.684;10.806;2022-08-19T12:33:10;1.17;;;1.08;;
16737;SDS011;17906;47.684;10.806;2022-08-19T12:35:40;1.35;;;0.90;;
16737;SDS011;17906;47.684;10.806;2022-08-19T12:38:07;1.20;;;0.85;;
16737;SDS011;17906;47.684;10.806;2022-08-19T12:40:34;0.75;;;0.70;;
16737;SDS011;17906;47.684;10.806;2022-08-19T12:43:01;0.88;;;0.80;;
16737;SDS011;17906;47.684;10.806;2022-08-19T12:45:27;1.30;;;1.00;;
16737;SDS011;17906;47.684;10.806;2022-08-19T12:47:54;1.17;;;1.02;;
16737;SDS011;17906;47.684;10.806;2022-08-19T12:50:21;1.33;;;1.20;;
16737;SDS011;17906;47.684;10.806;2022-08-19T12:52:49;1.40;;;1.15;;
16737;SDS011;17906;47.684;10.806;2022-08-19T12:55:16;1.77;;;1.30;;
16737;SDS011;17906;47.684;10.806;2022-08-19T12:57:44;1.00;;;0.80;;
16737;SDS011;17906;47.684;10.806;2022-08-19T13:00:14;1.42;;;0.82;;
16737;SDS011;17906;47.684;10.806;2022-08-19T13:02:44;1.55;;;1.02;;
16737;SDS011;17906;47.684;10.806;2022-08-19T13:05:15;1.75;;;0.90;;
16737;SDS011;17906;47.684;10.806;2022-08-19T13:07:45;4.07;;;3.13;;
16737;SDS011;17906;47.684;10.806;2022-08-19T13:10:14;1.20;;;1.00;;
16737;SDS011;17906;47.684;10.806;2022-08-19T13:12:42;2.88;;;1.23;;
16737;SDS011;17906;47.684;10.806;2022-08-19T13:15:10;1.35;;;1.20;;
16737;SDS011;17906;47.684;10.806;2022-08-19T13:17:38;2.15;;;1.50;;
16737;SDS011;17906;47.684;10.806;2022-08-19T13:20:05;3.75;;;1.80;;
16737;SDS011;17906;47.684;10.806;2022-08-19T13:22:33;4.00;;;1.58;;
16737;SDS011;17906;47.684;10.806;2022-08-19T13:25:01;3.13;;;1.85;;
16737;SDS011;17906;47.684;10.806;2022-08-19T13:27:32;3.45;;;1.77;;
16737;SDS011;17906;47.684;10.806;2022-08-19T13:29:59;2.45;;;1.88;;
16737;SDS011;17906;47.684;10.806;2022-08-19T13:32:43;2.65;;;1.92;;
16737;SDS011;17906;47.684;10.806;2022-08-19T13:35:27;2.92;;;2.08;;
16737;SDS011;17906;47.684;10.806;2022-08-19T13:37:54;2.50;;;2.08;;
16737;SDS011;17906;47.684;10.806;2022-08-19T13:40:22;2.95;;;2.25;;
16737;SDS011;17906;47.684;10.806;2022-08-19T13:42:53;3.03;;;2.22;;
16737;SDS011;17906;47.684;10.806;2022-08-19T13:45:21;3.25;;;2.30;;
16737;SDS011;17906;47.684;10.806;2022-08-19T13:47:50;2.60;;;2.20;;
16737;SDS011;17906;47.684;10.806;2022-08-19T13:50:20;2.92;;;2.20;;
16737;SDS011;17906;47.684;10.806;2022-08-19T13:52:49;4.43;;;3.03;;
16737;SDS011;17906;47.684;10.806;2022-08-19T13:55:16;6.90;;;3.10;;
16737;SDS011;17906;47.684;10.806;2022-08-19T13:57:43;3.72;;;2.83;;
16737;SDS011;17906;47.684;10.806;2022-08-19T14:00:12;3.40;;;2.72;;
16737;SDS011;17906;47.684;10.806;2022-08-19T14:02:42;4.90;;;2.97;;
16737;SDS011;17906;47.684;10.806;2022-08-19T14:05:10;3.97;;;2.88;;
16737;SDS011;17906;47.684;10.806;2022-08-19T14:07:39;4.55;;;3.10;;
16737;SDS011;17906;47.684;10.806;2022-08-19T14:10:06;6.30;;;3.80;;
16737;SDS011;17906;47.684;10.806;2022-08-19T14:12:35;5.68;;;3.92;;
16737;SDS011;17906;47.684;10.806;2022-08-19T14:15:03;7.55;;;3.97;;
16737;SDS011;17906;47.684;10.806;2022-08-19T14:17:32;5.15;;;3.95;;
16737;SDS011;17906;47.684;10.806;2022-08-19T14:20:00;6.60;;;4.75;;
16737;SDS011;17906;47.684;10.806;2022-08-19T14:22:32;7.70;;;5.05;;
16737;SDS011;17906;47.684;10.806;2022-08-19T14:24:59;6.82;;;5.07;;
16737;SDS011;17906;47.684;10.806;2022-08-19T14:27:25;7.40;;;5.43;;
16737;SDS011;17906;47.684;10.806;2022-08-19T14:29:52;6.50;;;4.90;;
16737;SDS011;17906;47.684;10.806;2022-08-19T14:32:20;6.60;;;4.75;;
16737;SDS011;17906;47.684;10.806;2022-08-19T14:34:48;5.85;;;4.28;;
16737;SDS011;17906;47.684;10.806;2022-08-19T14:37:15;6.35;;;4.22;;
16737;SDS011;17906;47.684;10.806;2022-08-19T14:39:42;5.80;;;4.47;;
16737;SDS011;17906;47.684;10.806;2022-08-19T14:42:09;4.65;;;3.58;;